»·PEaware :: UPS2086 KSFO-KSEA

UPS2086 :: KSFO-KSEA

FLIGHT INFORMATION

Flight Status: Arrived
Operator:
United Parcel Service
More flights by this operator :: More flights under this callsign
Pilot: Will K. (13011)
Aircraft: Unknown
(B748)
More flights by this aircraft type
Origin: KSFO San Francisco Intl
United States
Destination: KSEA Seattle-Tacoma Intl
United States
More flights between these airports :: More routes between these airports
Route: TRUKN2 DEDHD RBL LMT HAWKZ7
File this flight plan on PilotEdge
Remarks:
Altitude:
(Current/Filed)
36,000ft
Speed:
(Current/Filed)
500kts
Departed: 04-Oct-18 05:09 PM
Arrived: 04-Oct-18 06:46 PM
Distance/Time
Traveled:
591nm/1:36
Distance/Time
To Go:
Arrived

Flight Plot

Page will automatically refresh every two minutes.

Flight plan parsing failed; only flown route is shown


Map Options




Map Legend


Flown Route
Filed Route
Departure Airport
Arrival Airport
Navaid (VOR, NDB)
Fix

Horizontal Profiles

Position Reports

Time Latitude Longitude Heading Altitude Ground
Speed
04-Oct-18 16:29 37.635586 -122.387335 70 26ft 0kts
04-Oct-18 16:30 37.635586 -122.387335 70 26ft 0kts
04-Oct-18 16:31 37.635586 -122.387335 70 26ft 0kts
04-Oct-18 16:32 37.635586 -122.387335 70 26ft 0kts
04-Oct-18 16:33 37.635586 -122.387335 70 26ft 0kts
04-Oct-18 16:34 37.635586 -122.387335 70 26ft 0kts
04-Oct-18 16:35 37.635586 -122.387335 70 26ft 0kts
04-Oct-18 16:36 37.635586 -122.387335 70 26ft 0kts
04-Oct-18 16:37 37.635586 -122.387335 70 26ft 0kts
04-Oct-18 16:38 37.635586 -122.387335 70 26ft 0kts
04-Oct-18 16:39 37.635586 -122.387335 70 26ft 0kts
04-Oct-18 16:40 37.635586 -122.387335 70 26ft 0kts
04-Oct-18 16:41 37.635586 -122.387335 70 26ft 0kts
04-Oct-18 16:42 37.635586 -122.387335 70 26ft 0kts
04-Oct-18 16:43 37.635586 -122.387335 70 26ft 0kts
04-Oct-18 16:44 37.635586 -122.387335 70 26ft 0kts
04-Oct-18 16:45 37.635586 -122.387335 70 26ft 0kts
04-Oct-18 16:46 37.635586 -122.387335 70 26ft 0kts
04-Oct-18 16:47 37.635564 -122.387403 72 26ft 2kts
04-Oct-18 16:48 37.635614 -122.388063 140 26ft 2kts
04-Oct-18 16:49 37.635866 -122.388222 164 26ft 0kts
04-Oct-18 16:50 37.635866 -122.388222 164 26ft 0kts
04-Oct-18 16:51 37.635866 -122.388222 164 26ft 0kts
04-Oct-18 16:52 37.635866 -122.388222 164 26ft 0kts
04-Oct-18 16:53 37.635866 -122.388222 164 26ft 0kts
04-Oct-18 16:54 37.635866 -122.388222 164 26ft 0kts
04-Oct-18 16:55 37.635866 -122.388222 164 26ft 0kts
04-Oct-18 16:56 37.633885 -122.390924 244 26ft 11kts
04-Oct-18 16:57 37.631842 -122.391674 235 26ft 0kts
04-Oct-18 16:58 37.631842 -122.391674 235 26ft 0kts
04-Oct-18 16:59 37.631842 -122.391674 235 26ft 0kts
04-Oct-18 17:00 37.631842 -122.391674 235 26ft 0kts
04-Oct-18 17:01 37.631802 -122.391749 236 26ft 7kts
04-Oct-18 17:02 37.628930 -122.390205 116 26ft 25kts
04-Oct-18 17:03 37.625667 -122.382382 117 26ft 21kts
04-Oct-18 17:04 37.622415 -122.374614 118 26ft 27kts
04-Oct-18 17:05 37.619315 -122.367170 118 26ft 21kts
04-Oct-18 17:06 37.616189 -122.359690 118 26ft 28kts
04-Oct-18 17:07 37.614927 -122.356956 145 26ft 0kts
04-Oct-18 17:08 37.614927 -122.356956 145 26ft 0kts
04-Oct-18 17:09 37.614927 -122.356956 145 26ft 0kts
04-Oct-18 17:10 37.613914 -122.358013 295 26ft 10kts
04-Oct-18 17:11 37.624489 -122.383487 296 28ft 185kts
04-Oct-18 17:12 37.666277 -122.420509 16 2086ft 224kts
04-Oct-18 17:13 37.695752 -122.347511 76 3366ft 276kts
04-Oct-18 17:14 37.712006 -122.250877 72 6357ft 285kts
04-Oct-18 17:15 37.777504 -122.201492 8 9159ft 294kts
04-Oct-18 17:16 37.864341 -122.189691 5 10728ft 353kts
04-Oct-18 17:17 37.970329 -122.173037 5 12861ft 399kts
04-Oct-18 17:18 38.082664 -122.154711 4 15867ft 416kts
04-Oct-18 17:19 38.199979 -122.135317 4 18605ft 434kts
04-Oct-18 17:20 38.322155 -122.115288 1 21100ft 451kts
04-Oct-18 17:21 38.449108 -122.119661 352 23424ft 463kts
04-Oct-18 17:22 38.578489 -122.129368 353 25582ft 477kts
04-Oct-18 17:23 38.712927 -122.138743 353 27447ft 490kts
04-Oct-18 17:24 38.850493 -122.148246 353 28967ft 500kts
04-Oct-18 17:25 38.989111 -122.157872 353 30791ft 496kts
04-Oct-18 17:26 39.126009 -122.167417 352 32354ft 491kts
04-Oct-18 17:27 39.262273 -122.176955 352 33716ft 487kts
04-Oct-18 17:28 39.397147 -122.186433 352 34880ft 483kts
04-Oct-18 17:29 39.531030 -122.195878 352 35879ft 480kts
04-Oct-18 17:30 39.664303 -122.205315 352 36041ft 480kts
04-Oct-18 17:31 39.797934 -122.214799 352 36039ft 481kts
04-Oct-18 17:32 39.931355 -122.224323 352 36035ft 481kts
04-Oct-18 17:33 40.064930 -122.233905 352 36031ft 480kts
04-Oct-18 17:34 40.198842 -122.213854 6 36031ft 488kts
04-Oct-18 17:35 40.323567 -122.182400 6 36025ft 457kts
04-Oct-18 17:36 40.447637 -122.152096 6 36015ft 458kts
04-Oct-18 17:37 40.572791 -122.121810 6 36012ft 457kts
04-Oct-18 17:38 40.698061 -122.091274 6 36016ft 456kts
04-Oct-18 17:39 40.822733 -122.060752 6 36023ft 454kts
04-Oct-18 17:40 40.946777 -122.030266 5 36032ft 453kts
04-Oct-18 17:41 41.070837 -121.999659 5 36040ft 453kts
04-Oct-18 17:42 41.194842 -121.968946 5 36044ft 461kts
04-Oct-18 17:43 41.320352 -121.937742 5 36046ft 458kts
04-Oct-18 17:44 41.445601 -121.906480 5 36048ft 457kts
04-Oct-18 17:45 41.570643 -121.875146 5 36052ft 456kts
04-Oct-18 17:46 41.695072 -121.843842 5 36053ft 455kts
04-Oct-18 17:47 41.819616 -121.812391 5 36057ft 454kts
04-Oct-18 17:48 41.943640 -121.781039 5 36058ft 454kts
04-Oct-18 17:49 42.067710 -121.749378 5 36059ft 453kts
04-Oct-18 17:50 42.192130 -121.736375 349 36058ft 445kts
04-Oct-18 17:51 42.313688 -121.763522 346 36059ft 442kts
04-Oct-18 17:52 42.435101 -121.791662 346 36060ft 443kts
04-Oct-18 17:53 42.556782 -121.819451 347 36062ft 443kts
04-Oct-18 17:54 42.678199 -121.847279 346 36063ft 443kts
04-Oct-18 17:55 42.799984 -121.875347 346 36064ft 443kts
04-Oct-18 17:56 42.921477 -121.903465 346 36066ft 443kts
04-Oct-18 17:57 43.043017 -121.931675 346 36066ft 443kts
04-Oct-18 17:58 43.164893 -121.960055 346 36068ft 443kts
04-Oct-18 17:59 43.286350 -121.988576 346 36070ft 442kts
04-Oct-18 18:00 43.407428 -122.017074 346 36072ft 438kts
04-Oct-18 18:01 43.527113 -122.045417 346 36083ft 437kts
04-Oct-18 18:02 43.645998 -122.073705 346 36083ft 439kts
04-Oct-18 18:03 43.766097 -122.102182 346 36083ft 438kts
04-Oct-18 18:04 43.886285 -122.130849 346 36085ft 439kts
04-Oct-18 18:05 44.006867 -122.159783 346 36090ft 439kts
04-Oct-18 18:06 44.127360 -122.188822 346 36083ft 439kts
04-Oct-18 18:07 44.247285 -122.217848 346 36081ft 438kts
04-Oct-18 18:08 44.367712 -122.247112 346 36096ft 437kts
04-Oct-18 18:09 44.487354 -122.276310 346 36097ft 436kts
04-Oct-18 18:10 44.607269 -122.305698 346 36095ft 436kts
04-Oct-18 18:11 44.726459 -122.335028 346 36100ft 435kts
04-Oct-18 18:12 44.845028 -122.364331 346 36108ft 435kts
04-Oct-18 18:13 44.964230 -122.393828 346 36109ft 434kts
04-Oct-18 18:14 45.083370 -122.423514 346 36118ft 434kts
04-Oct-18 18:15 45.202555 -122.453417 346 36122ft 435kts
04-Oct-18 18:16 45.321628 -122.483369 346 36123ft 435kts
04-Oct-18 18:17 45.440759 -122.513438 346 36121ft 435kts
04-Oct-18 18:18 45.558687 -122.543219 346 35599ft 424kts
04-Oct-18 18:19 45.673104 -122.572424 346 34617ft 409kts
04-Oct-18 18:20 45.783583 -122.600334 347 33662ft 397kts
04-Oct-18 18:21 45.890095 -122.626573 346 32292ft 383kts
04-Oct-18 18:22 45.992799 -122.652157 347 30858ft 362kts
04-Oct-18 18:23 46.090830 -122.676603 347 29369ft 353kts
04-Oct-18 18:24 46.188195 -122.696023 348 27712ft 352kts
04-Oct-18 18:25 46.284828 -122.715161 348 26027ft 346kts
04-Oct-18 18:26 46.381119 -122.725329 355 24344ft 349kts
04-Oct-18 18:27 46.477319 -122.727937 355 22660ft 340kts
04-Oct-18 18:28 46.570655 -122.731199 355 21036ft 332kts
04-Oct-18 18:29 46.662857 -122.734537 355 19437ft 331kts
04-Oct-18 18:30 46.754392 -122.737859 356 17906ft 327kts
04-Oct-18 18:31 46.836394 -122.681988 36 16437ft 339kts
04-Oct-18 18:32 46.906213 -122.597955 34 14841ft 314kts
04-Oct-18 18:33 46.960183 -122.498812 45 12938ft 309kts
04-Oct-18 18:34 47.028237 -122.428787 25 11319ft 300kts
04-Oct-18 18:35 47.099062 -122.369863 30 9714ft 287kts
04-Oct-18 18:36 47.109630 -122.269008 129 7838ft 285kts
04-Oct-18 18:37 47.038148 -122.258504 195 6102ft 270kts
04-Oct-18 18:38 46.971369 -122.298354 235 4670ft 249kts
04-Oct-18 18:39 46.994948 -122.373783 347 3112ft 246kts
04-Oct-18 18:40 47.062452 -122.359029 11 2985ft 243kts
04-Oct-18 18:41 47.120634 -122.339469 11 2985ft 205kts
04-Oct-18 18:42 47.176251 -122.320756 11 2985ft 205kts
04-Oct-18 18:43 47.230911 -122.312943 359 2979ft 190kts
04-Oct-18 18:44 47.280638 -122.312603 359 2367ft 173kts
04-Oct-18 18:45 47.327545 -122.312200 359 2377ft 163kts
04-Oct-18 18:46 47.373115 -122.311803 359 1824ft 164kts
04-Oct-18 18:47 47.418928 -122.311335 359 864ft 164kts
04-Oct-18 18:48 47.455502 -122.311108 4 446ft 36kts
04-Oct-18 18:49 47.459083 -122.309534 31 446ft 3kts
04-Oct-18 18:50 47.462083 -122.306127 13 446ft 10kts

Navigation Log

Ident Type
Flight plan parsing failed, navigation log unavailable